.
WxDataArchive / Data Records for 2005-12-29
2005-12-28 December 2005 2005-12-30

Data Records for Thursday, 29 December 2005

Time	Temp	Chill	HIndex	Humid	Dewpt	 Wind 	HiWind	WindDir	Rain 	Barom 
-----	----	-----	------	-----	-----	------	------	-------	-----	----- 
00:00	35.5	35.5	35.5	93	33.7	2	4	292	0.00	29.382 
00:05	35.5	35.5	35.5	93	33.7	2	4	270	0.01	29.382 
00:10	35.5	35.5	35.5	93	33.7	2	5	338	0.00	29.382 
00:15	35.5	35.5	35.5	93	33.7	1	4	292	0.01	29.380 
00:20	35.5	35.5	35.5	93	33.7	2	6	270	0.00	29.380 
00:25	35.3	35.3	35.3	93	33.5	2	7	315	0.01	29.380 
00:30	35.3	35.3	35.3	93	33.5	2	3	292	0.01	29.381 
00:35	35.3	35.3	35.3	93	33.5	2	5	315	0.00	29.381 
00:40	35.3	35.3	35.3	93	33.5	2	5	270	0.01	29.381 
00:45	35.3	35.3	35.3	93	33.5	1	4	292	0.00	29.383 
00:50	35.3	35.3	35.3	93	33.5	2	5	292	0.01	29.383 
00:55	35.3	35.3	35.3	93	33.5	1	4	315	0.01	29.383 
01:00	35.3	35.3	35.3	93	33.5	2	4	270	0.01	29.384 
01:05	35.3	35.3	35.3	93	33.5	2	3	292	0.00	29.384 
01:10	35.3	35.3	35.3	93	33.5	2	6	292	0.01	29.384 
01:15	35.3	35.3	35.3	93	33.5	1	3	292	0.00	29.384 
01:20	35.3	35.3	35.3	93	33.5	2	6	292	0.00	29.384 
01:25	35.5	35.5	35.5	93	33.7	1	5	292	0.00	29.384 
01:30	35.5	35.5	35.5	93	33.7	2	5	292	0.01	29.386 
01:35	35.5	35.5	35.5	93	33.7	1	5	270	0.00	29.386 
01:40	35.5	35.5	35.5	93	33.7	2	4	292	0.00	29.386 
01:45	35.5	35.5	35.5	93	33.7	2	3	270	0.00	29.389 
01:50	35.5	35.5	35.5	93	33.7	1	4	270	0.00	29.389 
01:55	35.5	35.5	35.5	93	33.7	1	4	292	0.01	29.389 
02:00	35.5	35.5	35.5	93	33.7	1	4	338	0.00	29.399 
02:05	35.6	35.6	35.6	93	33.8	2	9	270	0.00	29.399 
02:10	35.6	35.6	35.6	93	33.8	1	6	270	0.00	29.399 
02:15	35.6	35.6	35.6	93	33.8	1	3	338	0.01	29.406 
02:20	35.6	35.6	35.6	93	33.8	2	4	315	0.00	29.406 
02:25	35.6	35.6	35.6	93	33.8	1	3	315	0.01	29.406 
02:30	35.6	35.6	35.6	93	33.8	1	5	22	0.00	29.414 
02:35	35.6	35.6	35.6	93	33.8	1	2	315	0.01	29.414 
02:40	35.6	35.6	35.6	93	33.8	1	4	292	0.01	29.414 
02:45	35.6	35.6	35.6	94	34.0	2	5	338	0.00	29.419 
02:50	35.6	35.6	35.6	94	34.0	1	3	22	0.01	29.419 
02:55	35.6	35.6	35.6	94	34.0	1	5	315	0.00	29.419 
03:00	35.6	35.6	35.6	94	34.0	1	4	292	0.00	29.431 
03:05	35.8	35.8	35.8	94	34.2	2	4	292	0.00	29.431 
03:10	35.8	35.8	35.8	94	34.2	2	5	315	0.00	29.431 
03:15	35.8	35.8	35.8	94	34.2	1	3	338	0.00	29.440 
03:20	35.8	35.8	35.8	94	34.2	1	4	315	0.00	29.440 
03:25	35.9	35.9	35.9	94	34.3	2	4	315	0.00	29.440 
03:30	35.9	35.9	35.9	94	34.3	1	4	292	0.00	29.444 
03:35	35.9	35.9	35.9	94	34.3	1	4	0	0.00	29.444 
03:40	35.9	35.9	35.9	94	34.3	1	4	292	0.00	29.444 
03:45	35.9	35.9	35.9	94	34.3	1	3	292	0.00	29.446 
03:50	35.9	35.9	35.9	94	34.3	2	4	338	0.00	29.446 
03:55	35.9	35.9	35.9	94	34.3	2	4	292	0.01	29.446 
04:00	35.9	35.9	35.9	94	34.3	1	4	315	0.00	29.459 
04:05	35.9	35.9	35.9	94	34.3	1	3	270	0.00	29.459 
04:10	35.9	35.9	35.9	94	34.3	2	6	338	0.00	29.459 
04:15	35.9	35.9	35.9	94	34.3	2	5	270	0.00	29.462 
04:20	35.9	35.9	35.9	94	34.3	3	5	292	0.00	29.462 
04:25	35.9	35.9	35.9	94	34.3	2	6	292	0.00	29.462 
04:30	35.9	35.9	35.9	94	34.3	2	5	315	0.00	29.462 
04:35	36.0	36.0	36.0	94	34.4	2	9	0	0.00	29.462 
04:40	36.0	36.0	36.0	94	34.4	2	7	338	0.00	29.462 
04:45	36.0	36.0	36.0	93	34.2	2	5	292	0.00	29.467 
04:50	36.0	36.0	36.0	93	34.2	3	9	315	0.00	29.467 
04:55	36.0	36.0	36.0	93	34.2	2	5	292	0.00	29.467 
05:00	36.0	36.0	36.0	93	34.2	2	10	315	0.00	29.475 
05:05	36.0	36.0	36.0	92	33.9	2	5	315	0.00	29.475 
05:10	36.0	36.0	36.0	92	33.9	2	10	338	0.00	29.475 
05:15	36.0	36.0	36.0	92	33.9	2	5	292	0.00	29.478 
05:20	36.0	36.0	36.0	92	33.9	2	5	338	0.00	29.478 
05:25	36.0	36.0	36.0	92	33.9	2	5	315	0.00	29.478 
05:30	36.0	36.0	36.0	92	33.9	2	8	292	0.00	29.482 
05:35	36.0	36.0	36.0	92	33.9	2	10	315	0.00	29.482 
05:40	36.0	36.0	36.0	91	33.6	2	6	315	0.00	29.482 
05:45	36.0	36.0	36.0	91	33.6	2	5	315	0.00	29.484 
05:50	36.0	36.0	36.0	91	33.6	2	4	315	0.00	29.484 
05:55	36.0	36.0	36.0	91	33.6	1	4	338	0.00	29.484 
06:00	36.0	36.0	36.0	91	33.6	2	4	338	0.00	29.493 
06:05	36.0	36.0	36.0	91	33.6	3	8	315	0.00	29.493 
06:10	36.0	36.0	36.0	91	33.6	3	9	315	0.00	29.493 
06:15	35.9	35.9	35.9	90	33.3	2	7	338	0.00	29.502 
06:20	35.9	35.9	35.9	90	33.3	3	10	0	0.00	29.502 
06:25	35.8	35.8	35.8	90	33.2	2	5	338	0.00	29.502 
06:30	35.8	35.8	35.8	90	33.2	2	5	292	0.00	29.509 
06:35	35.6	35.6	35.6	90	33.0	2	5	338	0.00	29.509 
06:40	35.6	35.6	35.6	90	33.0	2	6	338	0.00	29.509 
06:45	35.6	35.6	35.6	89	32.7	2	6	338	0.00	29.521 
06:50	35.5	35.5	35.5	89	32.6	2	7	0	0.00	29.521 
06:55	35.5	35.5	35.5	88	32.3	1	4	0	0.00	29.521 
07:00	35.5	35.5	35.5	88	32.3	1	4	338	0.00	29.525 
07:05	35.5	35.5	35.5	88	32.3	1	4	22	0.00	29.525 
07:10	35.5	35.5	35.5	88	32.3	1	5	338	0.00	29.525 
07:15	35.5	35.5	35.5	88	32.3	2	5	338	0.00	29.528 
07:20	35.3	35.3	35.3	88	32.1	1	3	0	0.00	29.528 
07:25	35.3	35.3	35.3	87	31.8	1	4	0	0.00	29.528 
07:30	35.3	35.3	35.3	87	31.8	1	5	0	0.00	29.534 
07:35	35.3	35.3	35.3	87	31.8	1	3	338	0.00	29.534 
07:40	35.3	35.3	35.3	87	31.8	1	3	315	0.00	29.534 
07:45	35.3	35.3	35.3	87	31.8	1	4	292	0.00	29.545 
07:50	35.3	35.3	35.3	86	31.5	1	4	315	0.00	29.545 
07:55	35.3	35.3	35.3	86	31.5	1	5	338	0.00	29.545 
08:00	35.3	35.3	35.3	86	31.5	1	4	338	0.00	29.556 
08:05	35.3	35.3	35.3	86	31.5	1	4	338	0.00	29.556 
08:10	35.3	35.3	35.3	86	31.5	1	5	292	0.00	29.556 
08:15	35.3	35.3	35.3	86	31.5	1	6	338	0.00	29.565 
08:20	35.3	35.3	35.3	86	31.5	1	3	292	0.00	29.565 
08:25	35.3	35.3	35.3	85	31.2	2	7	315	0.00	29.565 
08:30	35.5	35.5	35.5	85	31.4	2	5	292	0.00	29.579 
08:35	35.5	35.5	35.5	85	31.4	1	4	315	0.00	29.579 
08:40	35.5	35.5	35.5	86	31.7	1	3	338	0.00	29.579 
08:45	35.5	35.5	35.5	86	31.7	1	3	315	0.00	29.590 
08:50	35.5	35.5	35.5	86	31.7	1	4	292	0.00	29.590 
08:55	35.5	35.5	35.5	85	31.4	1	6	338	0.00	29.590 
09:00	35.5	35.5	35.5	85	31.4	1	3	338	0.00	29.596 
09:05	35.5	35.5	35.5	85	31.4	1	4	338	0.00	29.596 
09:10	35.5	35.5	35.5	85	31.4	1	5	0	0.00	29.596 
09:15	35.5	35.5	35.5	85	31.4	1	4	0	0.00	29.607 
09:20	35.5	35.5	35.5	85	31.4	1	3	338	0.00	29.607 
09:25	35.6	35.6	35.6	85	31.5	1	3	315	0.00	29.607 
09:30	35.6	35.6	35.6	85	31.5	1	4	338	0.00	29.617 
09:35	35.6	35.6	35.6	85	31.5	1	4	315	0.00	29.617 
09:40	35.6	35.6	35.6	85	31.5	1	5	338	0.00	29.617 
09:45	35.8	35.8	35.8	84	31.4	1	4	0	0.00	29.629 
09:50	35.8	35.8	35.8	85	31.7	1	5	270	0.00	29.629 
09:55	35.8	35.8	35.8	85	31.7	1	4	0	0.00	29.629 
10:00	35.8	35.8	35.8	85	31.7	1	4	338	0.00	29.637 
10:05	35.9	35.9	35.9	85	31.8	1	4	270	0.00	29.637 
10:10	35.9	35.9	35.9	85	31.8	1	3	338	0.00	29.637 
10:15	35.9	35.9	35.9	85	31.8	1	3	338	0.00	29.641 
10:20	36.0	36.0	36.0	85	31.9	2	5	338	0.00	29.641 
10:25	36.2	36.2	36.2	85	32.1	1	3	315	0.00	29.641 
10:30	36.2	36.2	36.2	85	32.1	1	3	315	0.00	29.644 
10:35	36.2	36.2	36.2	85	32.1	1	4	315	0.00	29.644 
10:40	36.2	36.2	36.2	85	32.1	1	3	338	0.00	29.644 
10:45	36.3	36.3	36.3	85	32.2	1	4	338	0.00	29.655 
10:50	36.3	36.3	36.3	85	32.2	1	3	338	0.00	29.655 
10:55	36.3	36.3	36.3	85	32.2	2	4	338	0.00	29.655 
11:00	36.3	36.3	36.3	84	31.9	1	4	315	0.00	29.653 
11:05	36.5	36.5	36.5	84	32.1	2	4	270	0.00	29.653 
11:10	36.5	36.5	36.5	85	32.4	2	5	315	0.00	29.653 
11:15	36.5	36.5	36.5	85	32.4	2	6	0	0.00	29.652 
11:20	36.5	36.5	36.5	85	32.4	1	3	315	0.00	29.652 
11:25	36.5	36.5	36.5	85	32.4	2	7	315	0.00	29.652 
11:30	36.5	36.5	36.5	85	32.4	2	5	270	0.00	29.655 
11:35	36.6	36.6	36.6	84	32.2	1	4	338	0.00	29.655 
11:40	36.6	36.6	36.6	85	32.5	1	3	0	0.00	29.655 
11:45	36.8	36.8	36.8	85	32.7	1	6	0	0.00	29.652 
11:50	37.0	37.0	37.0	85	32.9	1	4	338	0.00	29.652 
11:55	37.0	37.0	37.0	83	32.3	1	3	315	0.00	29.652 
12:00	37.0	37.0	37.0	83	32.3	2	5	292	0.00	29.658 
12:05	37.0	37.0	37.0	83	32.3	1	5	338	0.00	29.658 
12:10	36.9	36.9	36.9	84	32.5	1	4	315	0.00	29.658 
12:15	36.9	36.9	36.9	84	32.5	1	3	292	0.00	29.666 
12:20	36.9	36.9	36.9	84	32.5	1	3	270	0.00	29.666 
12:25	36.9	36.9	36.9	84	32.5	1	3	292	0.00	29.666 
12:30	36.9	36.9	36.9	84	32.5	1	4	292	0.00	29.665 
12:35	37.0	37.0	37.0	83	32.3	2	5	338	0.00	29.665 
12:40	37.0	37.0	37.0	84	32.6	1	3	338	0.00	29.665 
12:45	37.0	37.0	37.0	84	32.6	1	4	292	0.00	29.673 
12:50	36.9	36.9	36.9	83	32.2	2	4	315	0.00	29.673 
12:55	36.9	36.9	36.9	82	31.9	2	5	338	0.00	29.673 
13:00	36.9	36.9	36.9	82	31.9	2	4	338	0.00	29.682 
13:05	36.8	36.8	36.8	83	32.1	2	4	338	0.00	29.682 
13:10	36.8	36.8	36.8	83	32.1	2	6	292	0.00	29.682 
13:15	36.8	36.8	36.8	83	32.1	2	4	270	0.00	29.687 
13:20	36.8	36.8	36.8	83	32.1	1	4	338	0.00	29.687 
13:25	36.9	36.9	36.9	83	32.2	2	5	270	0.00	29.687 
13:30	36.8	36.8	36.8	83	32.1	2	9	315	0.00	29.688 
13:35	36.8	36.8	36.8	83	32.1	2	6	270	0.00	29.688 
13:40	36.8	36.8	36.8	83	32.1	2	7	292	0.00	29.688 
13:45	36.9	36.9	36.9	84	32.5	2	6	270	0.00	29.687 
13:50	36.9	36.9	36.9	83	32.2	2	6	338	0.00	29.687 
13:55	36.9	36.9	36.9	83	32.2	2	6	292	0.00	29.687 
14:00	36.9	36.9	36.9	83	32.2	2	4	292	0.00	29.690 
14:05	37.0	37.0	37.0	82	32.0	2	7	270	0.00	29.690 
14:10	37.0	37.0	37.0	82	32.0	2	6	0	0.00	29.690 
14:15	37.0	37.0	37.0	82	32.0	2	4	292	0.00	29.690 
14:20	37.2	37.2	37.2	83	32.5	1	5	338	0.00	29.690 
14:25	37.2	37.2	37.2	83	32.5	1	3	315	0.00	29.690 
14:30	37.0	37.0	37.0	83	32.3	1	5	292	0.00	29.704 
14:35	37.0	37.0	37.0	83	32.3	2	5	292	0.00	29.704 
14:40	37.0	37.0	37.0	83	32.3	2	5	292	0.00	29.704 
14:45	37.2	37.2	37.2	83	32.5	2	5	292	0.00	29.717 
14:50	37.0	37.0	37.0	84	32.6	2	6	315	0.00	29.717 
14:55	36.8	36.8	36.8	84	32.4	2	7	292	0.00	29.717 
15:00	36.8	36.8	36.8	84	32.4	2	5	270	0.00	29.720 
15:05	36.8	36.8	36.8	84	32.4	2	7	315	0.00	29.720 
15:10	36.8	36.8	36.8	84	32.4	2	6	292	0.00	29.720 
15:15	36.9	36.9	36.9	84	32.5	2	6	338	0.00	29.723 
15:20	36.9	36.9	36.9	83	32.2	1	3	315	0.00	29.723 
15:25	37.0	37.0	37.0	83	32.3	2	4	270	0.00	29.723 
15:30	37.0	37.0	37.0	83	32.3	2	6	338	0.00	29.727 
15:35	37.2	37.2	37.2	82	32.2	2	4	292	0.00	29.727 
15:40	37.2	37.2	37.2	82	32.2	2	5	315	0.00	29.727 
15:45	37.2	37.2	37.2	81	31.9	2	5	315	0.00	29.723 
15:50	37.2	37.2	37.2	82	32.2	2	6	315	0.00	29.723 
15:55	37.3	37.3	37.3	81	32.0	2	4	315	0.00	29.723 
16:00	37.3	37.3	37.3	81	32.0	2	5	338	0.00	29.741 
16:05	37.3	37.3	37.3	81	32.0	1	5	315	0.00	29.741 
16:10	37.2	37.2	37.2	81	31.9	1	3	315	0.00	29.741 
16:15	37.2	37.2	37.2	80	31.6	1	3	315	0.00	29.753 
16:20	37.0	37.0	37.0	81	31.7	1	4	270	0.00	29.753 
16:25	37.0	37.0	37.0	79	31.1	2	5	270	0.00	29.753 
16:30	36.9	36.9	36.9	80	31.3	1	3	315	0.00	29.757 
16:35	36.9	36.9	36.9	80	31.3	1	4	292	0.00	29.757 
16:40	36.9	36.9	36.9	81	31.6	1	3	315	0.00	29.757 
16:45	36.8	36.8	36.8	82	31.8	1	5	0	0.00	29.766 
16:50	36.6	36.6	36.6	81	31.3	1	4	338	0.00	29.766 
16:55	36.6	36.6	36.6	80	31.0	1	3	338	0.00	29.766 
17:00	36.6	36.6	36.6	80	31.0	1	2	22	0.00	29.769 
17:05	36.5	36.5	36.5	81	31.2	0	2	338	0.00	29.769 
17:10	36.5	36.5	36.5	81	31.2	1	2	292	0.00	29.769 
17:15	36.5	36.5	36.5	81	31.2	0	2	292	0.00	29.774 
17:20	36.5	36.5	36.5	81	31.2	1	3	315	0.00	29.774 
17:25	36.3	36.3	36.3	81	31.0	1	4	270	0.00	29.774 
17:30	36.3	36.3	36.3	81	31.0	1	2	270	0.00	29.784 
17:35	36.3	36.3	36.3	81	31.0	1	3	0	0.00	29.784 
17:40	36.3	36.3	36.3	81	31.0	1	3	315	0.00	29.784 
17:45	36.2	36.2	36.2	81	30.9	1	2	315	0.00	29.797 
17:50	36.2	36.2	36.2	82	31.2	0	1	315	0.00	29.797 
17:55	36.2	36.2	36.2	82	31.2	1	3	315	0.00	29.797 
18:00	36.2	36.2	36.2	81	30.9	1	3	315	0.00	29.803 
18:05	36.2	36.2	36.2	82	31.2	1	3	315	0.00	29.803 
18:10	36.2	36.2	36.2	82	31.2	1	2	315	0.00	29.803 
18:15	36.0	36.0	36.0	82	31.0	0	1	292	0.00	29.812 
18:20	36.0	36.0	36.0	82	31.0	1	2	292	0.00	29.812 
18:25	36.0	36.0	36.0	82	31.0	1	2	292	0.00	29.812 
18:30	36.0	36.0	36.0	82	31.0	1	3	0	0.00	29.815 
18:35	35.9	35.9	35.9	82	31.0	1	3	315	0.00	29.815 
18:40	35.9	35.9	35.9	82	31.0	1	3	315	0.00	29.815 
18:45	35.9	35.9	35.9	82	31.0	1	6	338	0.00	29.815 
18:50	35.9	35.9	35.9	82	31.0	0	2	338	0.00	29.815 
18:55	35.8	35.8	35.8	82	30.9	0	2	338	0.00	29.815 
19:00	35.8	35.8	35.8	82	30.9	0	3	22	0.00	29.813 
19:05	35.6	35.6	35.6	82	30.7	0	2	22	0.00	29.813 
19:10	35.6	35.6	35.6	82	30.7	0	1	22	0.00	29.813 
19:15	35.6	35.6	35.6	82	30.7	0	1	22	0.00	29.818 
19:20	35.5	35.5	35.5	82	30.6	0	2	22	0.00	29.818 
19:25	35.5	35.5	35.5	82	30.6	0	1	22	0.00	29.818 
19:30	35.5	35.5	35.5	82	30.6	0	2	22	0.00	29.817 
19:35	35.5	35.5	35.5	82	30.6	0	1	22	0.00	29.817 
19:40	35.5	35.5	35.5	83	30.9	0	1	22	0.00	29.817 
19:45	35.5	35.5	35.5	82	30.6	0	1	22	0.00	29.825 
19:50	35.5	35.5	35.5	83	30.9	0	1	22	0.00	29.825 
19:55	35.5	35.5	35.5	82	30.6	0	3	270	0.00	29.825 
20:00	35.5	35.5	35.5	83	30.9	0	0	---	0.00	29.831 
20:05	35.5	35.5	35.5	83	30.9	0	0	---	0.00	29.831 
20:10	35.5	35.5	35.5	83	30.9	0	0	---	0.00	29.831 
20:15	35.5	35.5	35.5	83	30.9	0	2	292	0.00	29.829 
20:20	35.5	35.5	35.5	82	30.6	0	2	292	0.00	29.829 
20:25	35.5	35.5	35.5	82	30.6	0	1	292	0.00	29.829 
20:30	35.5	35.5	35.5	82	30.6	0	1	292	0.00	29.829 
20:35	35.5	35.5	35.5	82	30.6	0	1	292	0.00	29.829 
20:40	35.5	35.5	35.5	82	30.6	0	1	292	0.00	29.829 
20:45	35.5	35.5	35.5	82	30.6	0	1	292	0.00	29.832 
20:50	35.3	35.3	35.3	82	30.4	0	1	292	0.00	29.832 
20:55	35.3	35.3	35.3	82	30.4	0	2	292	0.00	29.832 
21:00	35.5	35.5	35.5	82	30.6	0	1	292	0.00	29.836 
21:05	35.5	35.5	35.5	82	30.6	0	0	---	0.00	29.836 
21:10	35.3	35.3	35.3	82	30.4	0	0	---	0.00	29.836 
21:15	35.3	35.3	35.3	82	30.4	0	0	---	0.00	29.843 
21:20	35.3	35.3	35.3	82	30.4	0	2	292	0.00	29.843 
21:25	35.3	35.3	35.3	82	30.4	0	0	---	0.00	29.843 
21:30	35.3	35.3	35.3	82	30.4	0	0	---	0.00	29.841 
21:35	35.3	35.3	35.3	83	30.7	0	0	---	0.00	29.841 
21:40	35.3	35.3	35.3	83	30.7	0	0	---	0.00	29.841 
21:45	35.2	35.2	35.2	83	30.6	0	0	---	0.00	29.845 
21:50	35.2	35.2	35.2	83	30.6	0	0	---	0.00	29.845 
21:55	35.2	35.2	35.2	84	30.9	0	1	292	0.00	29.845 
22:00	35.2	35.2	35.2	83	30.6	0	2	292	0.00	29.846 
22:05	35.2	35.2	35.2	82	30.3	0	0	---	0.00	29.846 
22:10	35.0	35.0	35.0	82	30.1	0	0	---	0.00	29.846 
22:15	35.0	35.0	35.0	82	30.1	0	0	---	0.00	29.854 
22:20	35.0	35.0	35.0	82	30.1	0	0	---	0.00	29.854 
22:25	35.0	35.0	35.0	83	30.4	0	0	---	0.00	29.854 
22:30	35.0	35.0	35.0	82	30.1	0	0	---	0.00	29.862 
22:35	35.0	35.0	35.0	82	30.1	0	0	---	0.00	29.862 
22:40	35.0	35.0	35.0	83	30.4	0	0	---	0.00	29.862 
22:45	35.0	35.0	35.0	83	30.4	0	0	---	0.00	29.864 
22:50	35.0	35.0	35.0	83	30.4	0	0	---	0.00	29.864 
22:55	35.0	35.0	35.0	83	30.4	0	0	---	0.00	29.864 
23:00	35.0	35.0	35.0	84	30.7	0	0	---	0.00	29.865 
23:05	35.0	35.0	35.0	83	30.4	0	1	292	0.00	29.865 
23:10	35.0	35.0	35.0	83	30.4	0	0	---	0.00	29.865 
23:15	35.0	35.0	35.0	84	30.7	0	1	292	0.00	29.863 
23:20	35.0	35.0	35.0	83	30.4	0	2	292	0.00	29.863 
23:25	35.0	35.0	35.0	83	30.4	0	1	292	0.00	29.863 
23:30	35.0	35.0	35.0	83	30.4	0	1	292	0.00	29.865 
23:35	35.0	35.0	35.0	83	30.4	0	0	---	0.00	29.865 
23:40	35.0	35.0	35.0	83	30.4	0	1	292	0.00	29.865 
23:45	35.0	35.0	35.0	82	30.1	1	3	270	0.00	29.866 
23:50	35.0	35.0	35.0	83	30.4	0	2	248	0.00	29.866 
23:55	35.0	35.0	35.0	82	30.1	0	2	248	0.00	29.866 

CoCoRaHS
IN-AL-39
A2 Web Hosting
Creative Commons License
GoDaddy
Look for:

loaded 2017-12-11 14:07:00 • last modified 2010-11-18 10:43:29
Privacy PolicyDisclaimer
• wx.awcolley.com is powered by PmWiki v.2002016 •
• all content (unless otherwise noted) © 2017 A W Colley